sensor_id;sensor_type;location;lat;lon;timestamp;temperature;humidity
20442;DHT22;10380;52.102;20.614;2023-11-19T00:02:26;1.20;99.90
20442;DHT22;10380;52.102;20.614;2023-11-19T00:04:54;1.10;99.90
20442;DHT22;10380;52.102;20.614;2023-11-19T00:07:21;1.10;99.90
20442;DHT22;10380;52.102;20.614;2023-11-19T00:09:51;1.10;99.90
20442;DHT22;10380;52.102;20.614;2023-11-19T00:12:18;1.10;99.90
20442;DHT22;10380;52.102;20.614;2023-11-19T00:14:46;1.10;99.90
20442;DHT22;10380;52.102;20.614;2023-11-19T00:17:13;1.10;99.90
20442;DHT22;10380;52.102;20.614;2023-11-19T00:19:41;1.10;99.90
20442;DHT22;10380;52.102;20.614;2023-11-19T00:22:08;1.20;99.90
20442;DHT22;10380;52.102;20.614;2023-11-19T00:24:35;1.10;99.90
20442;DHT22;10380;52.102;20.614;2023-11-19T00:27:08;1.10;99.90
20442;DHT22;10380;52.102;20.614;2023-11-19T00:29:35;1.10;99.90
20442;DHT22;10380;52.102;20.614;2023-11-19T00:32:03;1.20;99.90
20442;DHT22;10380;52.102;20.614;2023-11-19T00:34:32;1.20;99.90
20442;DHT22;10380;52.102;20.614;2023-11-19T00:36:59;1.20;99.90
20442;DHT22;10380;52.102;20.614;2023-11-19T00:39:26;1.20;99.90
20442;DHT22;10380;52.102;20.614;2023-11-19T00:41:53;1.20;99.90
20442;DHT22;10380;52.102;20.614;2023-11-19T00:44:20;1.30;99.90
20442;DHT22;10380;52.102;20.614;2023-11-19T00:46:48;1.30;99.90
20442;DHT22;10380;52.102;20.614;2023-11-19T00:49:16;1.40;99.90
20442;DHT22;10380;52.102;20.614;2023-11-19T00:51:43;1.30;99.90
20442;DHT22;10380;52.102;20.614;2023-11-19T00:54:10;1.40;99.90
20442;DHT22;10380;52.102;20.614;2023-11-19T00:56:37;1.40;99.90
20442;DHT22;10380;52.102;20.614;2023-11-19T00:59:04;1.50;99.90
20442;DHT22;10380;52.102;20.614;2023-11-19T01:01:31;1.90;99.90
20442;DHT22;10380;52.102;20.614;2023-11-19T01:03:58;1.40;99.90
20442;DHT22;10380;52.102;20.614;2023-11-19T01:06:30;1.50;99.90
20442;DHT22;10380;52.102;20.614;2023-11-19T01:09:00;1.50;99.90
20442;DHT22;10380;52.102;20.614;2023-11-19T01:11:27;1.50;99.90
20442;DHT22;10380;52.102;20.614;2023-11-19T01:13:55;1.70;99.90
20442;DHT22;10380;52.102;20.614;2023-11-19T01:16:22;1.50;99.90
20442;DHT22;10380;52.102;20.614;2023-11-19T01:18:50;1.50;99.90
20442;DHT22;10380;52.102;20.614;2023-11-19T01:21:17;1.50;99.90
20442;DHT22;10380;52.102;20.614;2023-11-19T01:23:44;1.50;99.90
20442;DHT22;10380;52.102;20.614;2023-11-19T01:26:18;1.60;99.90
20442;DHT22;10380;52.102;20.614;2023-11-19T01:28:45;1.60;99.90
20442;DHT22;10380;52.102;20.614;2023-11-19T01:31:17;1.50;99.90
20442;DHT22;10380;52.102;20.614;2023-11-19T01:33:45;1.70;99.90
20442;DHT22;10380;52.102;20.614;2023-11-19T01:36:14;1.60;99.90
20442;DHT22;10380;52.102;20.614;2023-11-19T01:38:41;1.50;99.90
20442;DHT22;10380;52.102;20.614;2023-11-19T01:41:08;1.50;99.90
20442;DHT22;10380;52.102;20.614;2023-11-19T01:43:37;1.50;99.90
20442;DHT22;10380;52.102;20.614;2023-11-19T01:46:05;1.40;99.90
20442;DHT22;10380;52.102;20.614;2023-11-19T01:48:34;1.40;99.90
20442;DHT22;10380;52.102;20.614;2023-11-19T01:51:03;1.40;99.90
20442;DHT22;10380;52.102;20.614;2023-11-19T01:53:32;1.40;99.90
20442;DHT22;10380;52.102;20.614;2023-11-19T01:56:01;1.40;99.90
20442;DHT22;10380;52.102;20.614;2023-11-19T01:58:29;1.40;99.90
20442;DHT22;10380;52.102;20.614;2023-11-19T02:00:57;1.50;99.90
20442;DHT22;10380;52.102;20.614;2023-11-19T02:03:25;1.50;99.90
20442;DHT22;10380;52.102;20.614;2023-11-19T02:05:53;1.50;99.90
20442;DHT22;10380;52.102;20.614;2023-11-19T02:08:20;2.00;99.90
20442;DHT22;10380;52.102;20.614;2023-11-19T02:10:47;1.50;99.90
20442;DHT22;10380;52.102;20.614;2023-11-19T02:13:14;1.50;99.90
20442;DHT22;10380;52.102;20.614;2023-11-19T02:15:42;1.60;99.90
20442;DHT22;10380;52.102;20.614;2023-11-19T02:18:24;1.60;99.90
20442;DHT22;10380;52.102;20.614;2023-11-19T02:20:55;1.50;99.90
20442;DHT22;10380;52.102;20.614;2023-11-19T02:23:23;1.50;99.90
20442;DHT22;10380;52.102;20.614;2023-11-19T02:28:33;1.40;99.90
20442;DHT22;10380;52.102;20.614;2023-11-19T02:31:00;1.40;99.90
20442;DHT22;10380;52.102;20.614;2023-11-19T02:33:28;1.40;99.90
20442;DHT22;10380;52.102;20.614;2023-11-19T02:35:56;1.40;99.90
20442;DHT22;10380;52.102;20.614;2023-11-19T02:38:23;2.40;99.90
20442;DHT22;10380;52.102;20.614;2023-11-19T02:40:50;1.40;99.90
20442;DHT22;10380;52.102;20.614;2023-11-19T02:43:18;1.40;99.90
20442;DHT22;10380;52.102;20.614;2023-11-19T02:45:46;1.40;99.90
20442;DHT22;10380;52.102;20.614;2023-11-19T02:48:13;1.40;99.90
20442;DHT22;10380;52.102;20.614;2023-11-19T02:50:42;1.40;99.90
20442;DHT22;10380;52.102;20.614;2023-11-19T02:53:09;1.40;99.90
20442;DHT22;10380;52.102;20.614;2023-11-19T02:55:37;1.60;99.90
20442;DHT22;10380;52.102;20.614;2023-11-19T02:58:06;1.90;99.90
20442;DHT22;10380;52.102;20.614;2023-11-19T03:00:39;1.60;99.90
20442;DHT22;10380;52.102;20.614;2023-11-19T03:03:14;1.50;99.90
20442;DHT22;10380;52.102;20.614;2023-11-19T03:05:48;1.60;99.90
20442;DHT22;10380;52.102;20.614;2023-11-19T03:08:15;1.60;99.90
20442;DHT22;10380;52.102;20.614;2023-11-19T03:10:46;1.60;99.90
20442;DHT22;10380;52.102;20.614;2023-11-19T03:13:13;1.60;99.90
20442;DHT22;10380;52.102;20.614;2023-11-19T03:15:41;1.60;99.90
20442;DHT22;10380;52.102;20.614;2023-11-19T03:18:09;1.60;99.90
20442;DHT22;10380;52.102;20.614;2023-11-19T03:20:36;1.60;99.90
20442;DHT22;10380;52.102;20.614;2023-11-19T03:23:03;1.70;99.90
20442;DHT22;10380;52.102;20.614;2023-11-19T03:25:32;1.60;99.90
20442;DHT22;10380;52.102;20.614;2023-11-19T03:28:04;1.70;99.90
20442;DHT22;10380;52.102;20.614;2023-11-19T03:30:31;1.70;99.90
20442;DHT22;10380;52.102;20.614;2023-11-19T03:33:00;1.70;99.90
20442;DHT22;10380;52.102;20.614;2023-11-19T03:35:28;1.70;99.90
20442;DHT22;10380;52.102;20.614;2023-11-19T03:37:55;1.70;99.90
20442;DHT22;10380;52.102;20.614;2023-11-19T03:40:23;1.70;99.90
20442;DHT22;10380;52.102;20.614;2023-11-19T03:42:51;1.70;99.90
20442;DHT22;10380;52.102;20.614;2023-11-19T03:45:18;1.70;99.90
20442;DHT22;10380;52.102;20.614;2023-11-19T03:47:45;1.70;99.90
20442;DHT22;10380;52.102;20.614;2023-11-19T03:50:12;1.70;99.90
20442;DHT22;10380;52.102;20.614;2023-11-19T03:52:39;1.70;99.90
20442;DHT22;10380;52.102;20.614;2023-11-19T03:55:09;1.70;99.90
20442;DHT22;10380;52.102;20.614;2023-11-19T03:57:39;1.70;99.90
20442;DHT22;10380;52.102;20.614;2023-11-19T04:00:06;1.80;99.90
20442;DHT22;10380;52.102;20.614;2023-11-19T04:02:37;1.70;99.90
20442;DHT22;10380;52.102;20.614;2023-11-19T04:05:04;2.00;99.90
20442;DHT22;10380;52.102;20.614;2023-11-19T04:07:32;1.70;99.90
20442;DHT22;10380;52.102;20.614;2023-11-19T04:09:59;1.70;99.90
20442;DHT22;10380;52.102;20.614;2023-11-19T04:12:27;1.70;99.90
20442;DHT22;10380;52.102;20.614;2023-11-19T04:14:53;2.00;99.90
20442;DHT22;10380;52.102;20.614;2023-11-19T04:17:23;1.70;99.90
20442;DHT22;10380;52.102;20.614;2023-11-19T04:19:50;1.70;99.90
20442;DHT22;10380;52.102;20.614;2023-11-19T04:22:17;1.70;99.90
20442;DHT22;10380;52.102;20.614;2023-11-19T04:24:44;1.80;99.90
20442;DHT22;10380;52.102;20.614;2023-11-19T04:27:13;1.80;99.90
20442;DHT22;10380;52.102;20.614;2023-11-19T04:29:41;1.80;99.90
20442;DHT22;10380;52.102;20.614;2023-11-19T04:32:08;2.00;99.90
20442;DHT22;10380;52.102;20.614;2023-11-19T04:34:35;2.40;99.90
20442;DHT22;10380;52.102;20.614;2023-11-19T04:37:04;1.80;99.90
20442;DHT22;10380;52.102;20.614;2023-11-19T04:39:35;1.70;99.90
20442;DHT22;10380;52.102;20.614;2023-11-19T04:42:02;1.70;99.90
20442;DHT22;10380;52.102;20.614;2023-11-19T04:44:29;1.80;99.90
20442;DHT22;10380;52.102;20.614;2023-11-19T04:46:56;1.70;99.90
20442;DHT22;10380;52.102;20.614;2023-11-19T04:49:24;1.70;99.90
20442;DHT22;10380;52.102;20.614;2023-11-19T04:51:53;1.70;99.90
20442;DHT22;10380;52.102;20.614;2023-11-19T04:54:20;2.50;99.90
20442;DHT22;10380;52.102;20.614;2023-11-19T04:56:50;1.80;99.90
20442;DHT22;10380;52.102;20.614;2023-11-19T04:59:17;1.80;99.90
20442;DHT22;10380;52.102;20.614;2023-11-19T05:01:47;1.70;99.90
20442;DHT22;10380;52.102;20.614;2023-11-19T05:04:15;1.80;99.90
20442;DHT22;10380;52.102;20.614;2023-11-19T05:06:43;1.70;99.90
20442;DHT22;10380;52.102;20.614;2023-11-19T05:09:10;1.70;99.90
20442;DHT22;10380;52.102;20.614;2023-11-19T05:11:39;1.70;99.90
20442;DHT22;10380;52.102;20.614;2023-11-19T05:14:10;1.70;99.90
20442;DHT22;10380;52.102;20.614;2023-11-19T05:16:39;1.70;99.90
20442;DHT22;10380;52.102;20.614;2023-11-19T05:19:08;1.80;99.90
20442;DHT22;10380;52.102;20.614;2023-11-19T05:21:35;2.00;99.90
20442;DHT22;10380;52.102;20.614;2023-11-19T05:24:03;1.70;99.90
20442;DHT22;10380;52.102;20.614;2023-11-19T05:26:34;1.70;99.90
20442;DHT22;10380;52.102;20.614;2023-11-19T05:29:01;1.70;99.90
20442;DHT22;10380;52.102;20.614;2023-11-19T05:31:28;1.70;99.90
20442;DHT22;10380;52.102;20.614;2023-11-19T05:33:54;1.70;99.90
20442;DHT22;10380;52.102;20.614;2023-11-19T05:36:22;1.70;99.90
20442;DHT22;10380;52.102;20.614;2023-11-19T05:38:50;1.70;99.90
20442;DHT22;10380;52.102;20.614;2023-11-19T05:41:16;1.60;99.90
20442;DHT22;10380;52.102;20.614;2023-11-19T05:43:43;1.70;99.90
20442;DHT22;10380;52.102;20.614;2023-11-19T05:46:12;1.60;99.90
20442;DHT22;10380;52.102;20.614;2023-11-19T05:48:43;1.60;99.90
20442;DHT22;10380;52.102;20.614;2023-11-19T05:51:14;1.70;99.90
20442;DHT22;10380;52.102;20.614;2023-11-19T05:53:44;1.60;99.90
20442;DHT22;10380;52.102;20.614;2023-11-19T05:56:13;1.60;99.90
20442;DHT22;10380;52.102;20.614;2023-11-19T05:58:42;1.60;99.90
20442;DHT22;10380;52.102;20.614;2023-11-19T06:01:12;1.60;99.90
20442;DHT22;10380;52.102;20.614;2023-11-19T06:03:39;2.00;99.90
20442;DHT22;10380;52.102;20.614;2023-11-19T06:06:06;1.60;99.90
20442;DHT22;10380;52.102;20.614;2023-11-19T06:08:33;1.60;99.90
20442;DHT22;10380;52.102;20.614;2023-11-19T06:11:01;1.60;99.90
20442;DHT22;10380;52.102;20.614;2023-11-19T06:13:28;1.60;99.90
20442;DHT22;10380;52.102;20.614;2023-11-19T06:15:58;1.80;99.90
20442;DHT22;10380;52.102;20.614;2023-11-19T06:18:26;1.60;99.90
20442;DHT22;10380;52.102;20.614;2023-11-19T06:20:54;1.80;99.90
20442;DHT22;10380;52.102;20.614;2023-11-19T06:23:21;2.40;99.90
20442;DHT22;10380;52.102;20.614;2023-11-19T06:25:48;1.60;99.90
20442;DHT22;10380;52.102;20.614;2023-11-19T06:28:15;1.70;99.90
20442;DHT22;10380;52.102;20.614;2023-11-19T06:30:43;1.70;99.90
20442;DHT22;10380;52.102;20.614;2023-11-19T06:33:14;1.70;99.90
20442;DHT22;10380;52.102;20.614;2023-11-19T06:35:41;1.80;99.90
20442;DHT22;10380;52.102;20.614;2023-11-19T06:38:09;1.80;99.90
20442;DHT22;10380;52.102;20.614;2023-11-19T06:40:36;1.80;99.90
20442;DHT22;10380;52.102;20.614;2023-11-19T06:43:05;1.80;99.90
20442;DHT22;10380;52.102;20.614;2023-11-19T06:45:35;1.80;99.90
20442;DHT22;10380;52.102;20.614;2023-11-19T06:48:04;1.80;99.90
20442;DHT22;10380;52.102;20.614;2023-11-19T06:50:32;1.80;99.90
20442;DHT22;10380;52.102;20.614;2023-11-19T06:52:59;1.80;99.90
20442;DHT22;10380;52.102;20.614;2023-11-19T06:55:26;1.80;99.90
20442;DHT22;10380;52.102;20.614;2023-11-19T06:57:54;1.90;99.90
20442;DHT22;10380;52.102;20.614;2023-11-19T07:00:21;1.80;99.90
20442;DHT22;10380;52.102;20.614;2023-11-19T07:02:49;1.80;99.90
20442;DHT22;10380;52.102;20.614;2023-11-19T07:05:18;1.70;99.90
20442;DHT22;10380;52.102;20.614;2023-11-19T07:07:45;1.80;99.90
20442;DHT22;10380;52.102;20.614;2023-11-19T07:10:14;1.90;99.90
20442;DHT22;10380;52.102;20.614;2023-11-19T07:12:41;1.80;99.90
20442;DHT22;10380;52.102;20.614;2023-11-19T07:15:09;1.80;99.90
20442;DHT22;10380;52.102;20.614;2023-11-19T07:17:39;1.80;99.90
20442;DHT22;10380;52.102;20.614;2023-11-19T07:20:07;1.80;99.90
20442;DHT22;10380;52.102;20.614;2023-11-19T07:22:34;1.80;99.90
20442;DHT22;10380;52.102;20.614;2023-11-19T07:25:01;1.90;99.90
20442;DHT22;10380;52.102;20.614;2023-11-19T07:27:29;1.90;99.90
20442;DHT22;10380;52.102;20.614;2023-11-19T07:29:56;1.90;99.90
20442;DHT22;10380;52.102;20.614;2023-11-19T07:32:23;1.90;99.90
20442;DHT22;10380;52.102;20.614;2023-11-19T07:34:50;1.90;99.90
20442;DHT22;10380;52.102;20.614;2023-11-19T07:37:17;1.90;99.90
20442;DHT22;10380;52.102;20.614;2023-11-19T07:39:46;2.00;99.90
20442;DHT22;10380;52.102;20.614;2023-11-19T07:42:14;2.00;99.90
20442;DHT22;10380;52.102;20.614;2023-11-19T07:44:41;2.00;99.90
20442;DHT22;10380;52.102;20.614;2023-11-19T07:47:08;2.00;99.90
20442;DHT22;10380;52.102;20.614;2023-11-19T07:49:35;2.10;99.90
20442;DHT22;10380;52.102;20.614;2023-11-19T07:52:03;2.10;99.90
20442;DHT22;10380;52.102;20.614;2023-11-19T07:54:30;2.10;99.90
20442;DHT22;10380;52.102;20.614;2023-11-19T07:56:57;2.10;99.90
20442;DHT22;10380;52.102;20.614;2023-11-19T07:59:24;2.10;99.90
20442;DHT22;10380;52.102;20.614;2023-11-19T08:01:51;2.10;99.90
20442;DHT22;10380;52.102;20.614;2023-11-19T08:04:19;2.20;99.90
20442;DHT22;10380;52.102;20.614;2023-11-19T08:06:47;2.20;99.90
20442;DHT22;10380;52.102;20.614;2023-11-19T08:09:14;2.30;99.90
20442;DHT22;10380;52.102;20.614;2023-11-19T08:11:41;2.20;99.90
20442;DHT22;10380;52.102;20.614;2023-11-19T08:14:09;2.20;99.90
20442;DHT22;10380;52.102;20.614;2023-11-19T08:16:39;2.20;99.90
20442;DHT22;10380;52.102;20.614;2023-11-19T08:19:06;2.20;99.90
20442;DHT22;10380;52.102;20.614;2023-11-19T08:21:33;2.20;99.90
20442;DHT22;10380;52.102;20.614;2023-11-19T08:24:00;2.30;99.90
20442;DHT22;10380;52.102;20.614;2023-11-19T08:26:27;2.30;99.90
20442;DHT22;10380;52.102;20.614;2023-11-19T08:28:54;2.40;99.90
20442;DHT22;10380;52.102;20.614;2023-11-19T08:31:22;2.80;99.90
20442;DHT22;10380;52.102;20.614;2023-11-19T08:33:49;2.50;99.90
20442;DHT22;10380;52.102;20.614;2023-11-19T08:36:16;2.50;99.90
20442;DHT22;10380;52.102;20.614;2023-11-19T08:38:46;2.60;99.90
20442;DHT22;10380;52.102;20.614;2023-11-19T08:41:16;3.30;99.90
20442;DHT22;10380;52.102;20.614;2023-11-19T08:43:45;2.60;99.90
20442;DHT22;10380;52.102;20.614;2023-11-19T08:46:12;2.70;99.90
20442;DHT22;10380;52.102;20.614;2023-11-19T08:48:42;2.70;99.90
20442;DHT22;10380;52.102;20.614;2023-11-19T08:51:09;2.80;99.90
20442;DHT22;10380;52.102;20.614;2023-11-19T08:53:36;2.80;99.90
20442;DHT22;10380;52.102;20.614;2023-11-19T08:56:04;2.90;99.90
20442;DHT22;10380;52.102;20.614;2023-11-19T08:58:31;2.90;99.90
20442;DHT22;10380;52.102;20.614;2023-11-19T09:00:59;3.00;99.90
20442;DHT22;10380;52.102;20.614;2023-11-19T09:03:26;2.90;99.90
20442;DHT22;10380;52.102;20.614;2023-11-19T09:05:53;2.90;99.90
20442;DHT22;10380;52.102;20.614;2023-11-19T09:08:21;3.00;99.90
20442;DHT22;10380;52.102;20.614;2023-11-19T09:10:48;2.90;99.90
20442;DHT22;10380;52.102;20.614;2023-11-19T09:13:15;2.90;99.90
20442;DHT22;10380;52.102;20.614;2023-11-19T09:15:42;2.90;99.90
20442;DHT22;10380;52.102;20.614;2023-11-19T09:18:09;3.00;99.90
20442;DHT22;10380;52.102;20.614;2023-11-19T09:20:36;3.00;99.90
20442;DHT22;10380;52.102;20.614;2023-11-19T09:23:06;3.00;99.90
20442;DHT22;10380;52.102;20.614;2023-11-19T09:25:33;2.90;99.90
20442;DHT22;10380;52.102;20.614;2023-11-19T09:28:03;2.90;99.90
20442;DHT22;10380;52.102;20.614;2023-11-19T09:30:31;2.90;99.90
20442;DHT22;10380;52.102;20.614;2023-11-19T09:33:01;2.90;99.90
20442;DHT22;10380;52.102;20.614;2023-11-19T09:35:29;2.90;99.90
20442;DHT22;10380;52.102;20.614;2023-11-19T09:37:56;2.90;99.90
20442;DHT22;10380;52.102;20.614;2023-11-19T09:40:23;2.80;99.90
20442;DHT22;10380;52.102;20.614;2023-11-19T09:42:50;2.70;99.90
20442;DHT22;10380;52.102;20.614;2023-11-19T09:45:20;2.70;99.90
20442;DHT22;10380;52.102;20.614;2023-11-19T09:47:50;2.70;99.90
20442;DHT22;10380;52.102;20.614;2023-11-19T09:50:20;2.70;99.90
20442;DHT22;10380;52.102;20.614;2023-11-19T09:52:47;2.70;99.90
20442;DHT22;10380;52.102;20.614;2023-11-19T09:55:14;2.70;99.90
20442;DHT22;10380;52.102;20.614;2023-11-19T09:57:43;2.70;99.90
20442;DHT22;10380;52.102;20.614;2023-11-19T10:00:14;2.70;99.90
20442;DHT22;10380;52.102;20.614;2023-11-19T10:02:43;2.70;99.90
20442;DHT22;10380;52.102;20.614;2023-11-19T10:05:14;2.80;99.90
20442;DHT22;10380;52.102;20.614;2023-11-19T10:07:42;2.70;99.90
20442;DHT22;10380;52.102;20.614;2023-11-19T10:10:12;2.70;99.90
20442;DHT22;10380;52.102;20.614;2023-11-19T10:12:50;2.70;99.90
20442;DHT22;10380;52.102;20.614;2023-11-19T10:15:21;2.60;99.90
20442;DHT22;10380;52.102;20.614;2023-11-19T10:17:49;2.60;99.90
20442;DHT22;10380;52.102;20.614;2023-11-19T10:20:17;2.70;99.90
20442;DHT22;10380;52.102;20.614;2023-11-19T10:22:44;2.60;99.90
20442;DHT22;10380;52.102;20.614;2023-11-19T10:25:29;2.60;99.90
20442;DHT22;10380;52.102;20.614;2023-11-19T10:27:56;2.60;99.90
20442;DHT22;10380;52.102;20.614;2023-11-19T10:30:25;2.70;99.90
20442;DHT22;10380;52.102;20.614;2023-11-19T10:33:12;2.60;99.90
20442;DHT22;10380;52.102;20.614;2023-11-19T10:35:54;2.60;99.90
20442;DHT22;10380;52.102;20.614;2023-11-19T10:38:26;2.60;99.90
20442;DHT22;10380;52.102;20.614;2023-11-19T10:40:54;2.70;99.90
20442;DHT22;10380;52.102;20.614;2023-11-19T10:43:24;2.70;99.90
20442;DHT22;10380;52.102;20.614;2023-11-19T10:45:52;2.60;99.90
20442;DHT22;10380;52.102;20.614;2023-11-19T10:48:19;2.70;99.90
20442;DHT22;10380;52.102;20.614;2023-11-19T10:50:53;3.10;99.90
20442;DHT22;10380;52.102;20.614;2023-11-19T10:53:24;2.80;99.90
20442;DHT22;10380;52.102;20.614;2023-11-19T10:55:54;2.90;99.90
20442;DHT22;10380;52.102;20.614;2023-11-19T10:58:28;3.00;99.90
20442;DHT22;10380;52.102;20.614;2023-11-19T11:01:00;2.90;99.90
20442;DHT22;10380;52.102;20.614;2023-11-19T11:03:35;3.00;99.90
20442;DHT22;10380;52.102;20.614;2023-11-19T11:06:04;3.00;99.90
20442;DHT22;10380;52.102;20.614;2023-11-19T11:08:31;3.00;99.90
20442;DHT22;10380;52.102;20.614;2023-11-19T11:10:58;3.00;99.90
20442;DHT22;10380;52.102;20.614;2023-11-19T11:13:26;3.00;99.90
20442;DHT22;10380;52.102;20.614;2023-11-19T11:15:58;3.10;99.90
20442;DHT22;10380;52.102;20.614;2023-11-19T11:18:25;3.00;99.90
20442;DHT22;10380;52.102;20.614;2023-11-19T11:21:00;3.10;99.90
20442;DHT22;10380;52.102;20.614;2023-11-19T11:37:16;3.00;99.90
20442;DHT22;10380;52.102;20.614;2023-11-19T11:39:46;3.00;99.90
20442;DHT22;10380;52.102;20.614;2023-11-19T11:45:00;3.00;99.90
20442;DHT22;10380;52.102;20.614;2023-11-19T11:50:15;3.00;99.90
20442;DHT22;10380;52.102;20.614;2023-11-19T11:58:06;3.00;99.90
20442;DHT22;10380;52.102;20.614;2023-11-19T12:00:37;3.00;99.90
20442;DHT22;10380;52.102;20.614;2023-11-19T12:03:06;3.00;99.90
20442;DHT22;10380;52.102;20.614;2023-11-19T12:05:41;3.00;99.90
20442;DHT22;10380;52.102;20.614;2023-11-19T12:08:14;3.00;99.90
20442;DHT22;10380;52.102;20.614;2023-11-19T12:13:17;3.00;99.90
20442;DHT22;10380;52.102;20.614;2023-11-19T12:18:29;3.00;99.90
20442;DHT22;10380;52.102;20.614;2023-11-19T12:20:58;3.00;99.90
20442;DHT22;10380;52.102;20.614;2023-11-19T12:23:31;2.90;99.90
20442;DHT22;10380;52.102;20.614;2023-11-19T12:25:59;2.90;99.90
20442;DHT22;10380;52.102;20.614;2023-11-19T12:31:08;2.90;99.90
20442;DHT22;10380;52.102;20.614;2023-11-19T12:33:37;2.80;99.90
20442;DHT22;10380;52.102;20.614;2023-11-19T12:36:05;2.90;99.90
20442;DHT22;10380;52.102;20.614;2023-11-19T12:38:32;2.90;99.90
20442;DHT22;10380;52.102;20.614;2023-11-19T12:41:07;2.80;99.90
20442;DHT22;10380;52.102;20.614;2023-11-19T12:43:35;2.80;99.90
20442;DHT22;10380;52.102;20.614;2023-11-19T12:48:50;2.70;99.90
20442;DHT22;10380;52.102;20.614;2023-11-19T12:51:17;2.80;99.90
20442;DHT22;10380;52.102;20.614;2023-11-19T12:53:52;4.20;99.90
20442;DHT22;10380;52.102;20.614;2023-11-19T12:56:24;2.80;99.90
20442;DHT22;10380;52.102;20.614;2023-11-19T12:58:51;2.70;99.90
20442;DHT22;10380;52.102;20.614;2023-11-19T13:01:20;2.70;99.90
20442;DHT22;10380;52.102;20.614;2023-11-19T13:03:47;2.70;99.90
20442;DHT22;10380;52.102;20.614;2023-11-19T13:06:18;2.70;99.90
20442;DHT22;10380;52.102;20.614;2023-11-19T13:08:49;2.70;99.90
20442;DHT22;10380;52.102;20.614;2023-11-19T13:11:35;2.60;99.90
20442;DHT22;10380;52.102;20.614;2023-11-19T13:14:04;2.60;99.90
20442;DHT22;10380;52.102;20.614;2023-11-19T13:16:33;2.60;99.90
20442;DHT22;10380;52.102;20.614;2023-11-19T13:19:00;2.60;99.90
20442;DHT22;10380;52.102;20.614;2023-11-19T13:21:27;2.60;99.90
20442;DHT22;10380;52.102;20.614;2023-11-19T13:23:55;2.60;99.90
20442;DHT22;10380;52.102;20.614;2023-11-19T13:26:22;3.10;99.90
20442;DHT22;10380;52.102;20.614;2023-11-19T13:28:50;2.60;99.90
20442;DHT22;10380;52.102;20.614;2023-11-19T13:31:17;2.60;99.90
20442;DHT22;10380;52.102;20.614;2023-11-19T13:33:45;2.50;99.90
20442;DHT22;10380;52.102;20.614;2023-11-19T13:36:12;2.50;99.90
20442;DHT22;10380;52.102;20.614;2023-11-19T13:38:43;2.50;99.90
20442;DHT22;10380;52.102;20.614;2023-11-19T13:41:14;2.50;99.90
20442;DHT22;10380;52.102;20.614;2023-11-19T13:43:41;2.50;99.90
20442;DHT22;10380;52.102;20.614;2023-11-19T13:46:09;2.50;99.90
20442;DHT22;10380;52.102;20.614;2023-11-19T13:48:39;2.50;99.90
20442;DHT22;10380;52.102;20.614;2023-11-19T13:51:06;2.50;99.90
20442;DHT22;10380;52.102;20.614;2023-11-19T13:53:33;2.50;99.90
20442;DHT22;10380;52.102;20.614;2023-11-19T13:56:04;2.50;99.90
20442;DHT22;10380;52.102;20.614;2023-11-19T13:58:31;2.50;99.90
20442;DHT22;10380;52.102;20.614;2023-11-19T14:00:58;2.50;99.90
20442;DHT22;10380;52.102;20.614;2023-11-19T14:03:25;2.50;99.90
20442;DHT22;10380;52.102;20.614;2023-11-19T14:05:52;2.50;99.90
20442;DHT22;10380;52.102;20.614;2023-11-19T14:08:21;2.50;99.90
20442;DHT22;10380;52.102;20.614;2023-11-19T14:10:52;2.60;99.90
20442;DHT22;10380;52.102;20.614;2023-11-19T14:13:23;2.60;99.90
20442;DHT22;10380;52.102;20.614;2023-11-19T14:15:50;2.50;99.90
20442;DHT22;10380;52.102;20.614;2023-11-19T14:18:18;2.60;99.90
20442;DHT22;10380;52.102;20.614;2023-11-19T14:20:45;2.50;99.90
20442;DHT22;10380;52.102;20.614;2023-11-19T14:23:12;2.50;99.90
20442;DHT22;10380;52.102;20.614;2023-11-19T14:25:39;2.50;99.90
20442;DHT22;10380;52.102;20.614;2023-11-19T14:28:06;2.50;99.90
20442;DHT22;10380;52.102;20.614;2023-11-19T14:30:34;2.50;99.90
20442;DHT22;10380;52.102;20.614;2023-11-19T14:33:02;2.50;99.90
20442;DHT22;10380;52.102;20.614;2023-11-19T14:35:30;2.40;99.90
20442;DHT22;10380;52.102;20.614;2023-11-19T14:37:59;2.40;99.90
20442;DHT22;10380;52.102;20.614;2023-11-19T14:40:26;2.40;99.90
20442;DHT22;10380;52.102;20.614;2023-11-19T14:42:57;2.40;99.90
20442;DHT22;10380;52.102;20.614;2023-11-19T14:45:24;2.30;99.90
20442;DHT22;10380;52.102;20.614;2023-11-19T14:47:51;2.40;99.90
20442;DHT22;10380;52.102;20.614;2023-11-19T14:50:19;2.30;99.90
20442;DHT22;10380;52.102;20.614;2023-11-19T14:52:46;2.30;99.90
20442;DHT22;10380;52.102;20.614;2023-11-19T14:55:13;2.40;99.90
20442;DHT22;10380;52.102;20.614;2023-11-19T14:57:41;2.20;99.90
20442;DHT22;10380;52.102;20.614;2023-11-19T15:00:23;2.20;99.90
20442;DHT22;10380;52.102;20.614;2023-11-19T15:02:50;2.20;99.90
20442;DHT22;10380;52.102;20.614;2023-11-19T15:05:17;2.30;99.90
20442;DHT22;10380;52.102;20.614;2023-11-19T15:07:44;2.10;99.90
20442;DHT22;10380;52.102;20.614;2023-11-19T15:10:11;2.10;99.90
20442;DHT22;10380;52.102;20.614;2023-11-19T15:12:39;2.10;99.90
20442;DHT22;10380;52.102;20.614;2023-11-19T15:15:09;2.10;99.90
20442;DHT22;10380;52.102;20.614;2023-11-19T15:17:37;2.00;99.90
20442;DHT22;10380;52.102;20.614;2023-11-19T15:20:05;2.40;99.90
20442;DHT22;10380;52.102;20.614;2023-11-19T15:22:32;2.00;99.90
20442;DHT22;10380;52.102;20.614;2023-11-19T15:24:59;2.10;99.90
20442;DHT22;10380;52.102;20.614;2023-11-19T15:27:26;2.00;99.90
20442;DHT22;10380;52.102;20.614;2023-11-19T15:29:54;2.00;99.90
20442;DHT22;10380;52.102;20.614;2023-11-19T15:32:22;2.00;99.90
20442;DHT22;10380;52.102;20.614;2023-11-19T15:34:49;2.00;99.90
20442;DHT22;10380;52.102;20.614;2023-11-19T15:37:16;2.30;99.90
20442;DHT22;10380;52.102;20.614;2023-11-19T15:39:43;2.00;99.90
20442;DHT22;10380;52.102;20.614;2023-11-19T15:42:11;2.00;99.90
20442;DHT22;10380;52.102;20.614;2023-11-19T15:44:38;2.00;99.90
20442;DHT22;10380;52.102;20.614;2023-11-19T15:47:06;2.10;99.90
20442;DHT22;10380;52.102;20.614;2023-11-19T15:49:35;2.50;99.90
20442;DHT22;10380;52.102;20.614;2023-11-19T15:52:03;2.00;99.90
20442;DHT22;10380;52.102;20.614;2023-11-19T15:54:31;2.00;99.90
20442;DHT22;10380;52.102;20.614;2023-11-19T15:56:59;2.00;99.90
20442;DHT22;10380;52.102;20.614;2023-11-19T15:59:26;2.30;99.90
20442;DHT22;10380;52.102;20.614;2023-11-19T16:01:53;2.00;99.90
20442;DHT22;10380;52.102;20.614;2023-11-19T16:04:20;2.00;99.90
20442;DHT22;10380;52.102;20.614;2023-11-19T16:06:47;1.90;99.90
20442;DHT22;10380;52.102;20.614;2023-11-19T16:09:15;2.00;99.90
20442;DHT22;10380;52.102;20.614;2023-11-19T16:11:45;1.90;99.90
20442;DHT22;10380;52.102;20.614;2023-11-19T16:14:25;2.00;99.90
20442;DHT22;10380;52.102;20.614;2023-11-19T16:16:52;2.10;99.90